East Lempster, New Hampshire
Current Conditions -  °F | °C
As of 9:54 AM on Wednesday 22 Oct 2014 (Local Time) from KVSF Reporting Station
Overcast Overcast  
Wind Chill: 47°   Ceiling: 1800
Heat Index: 49°   Visibility: 10mi
Dew Point: 45°   Wind: 6mph
Humidity: 86%   Direction: 20°NNE
Pressure: 30.13"   Gusts: NA
Location:  43.2136°N, 72.1592°W
Report Text: KVSF 221354Z AUTO 02005KT 10SM OVC018 09/07 A3013 RMK AO2 SLP205 T00940072
Loading
Personal Weather Stations






























Interactive Weather Map
Tropical Storm Tracking
New forecast layout! Learn more

10-Day Weather Forecast

Advertisements
Track Severe Weather on mobile